DW4221 Weather Reports


Display with metric or nautical units.
time (UTC)temp
F
wind
direction
speed
MPH
gust
MPH
rain 1hr
in
rain 24hr
in
rain mn
in
humidity
%
barometer
mb
20190915120104 53 167 0.0 3.0 0.00 0.01 0.00 95 1014.5
20190915114632 53 156 0.0 2.0 0.00 0.02 0.00 94 1014.5
20190915113126 53 145 0.0 2.0 0.00 0.02 0.00 93 1014.5
20190915111656 53 155 0.0 0.0 0.00 0.02 0.00 93 1014.4
20190915110103 53 160 0.0 0.0 0.00 0.02 0.00 92 1014.3
20190915104619 53 95 0.0 0.0 0.00 0.02 0.00 92 1014.2
20190915103214 53 58 0.0 0.0 0.00 0.02 0.00 92 1014.1
20190915101554 53 55 0.0 0.0 0.00 0.02 0.00 93 1014.1
20190915100122 53 55 0.0 0.0 0.00 0.02 0.00 93 1014.2
20190915094607 52 55 0.0 0.0 0.00 0.02 0.00 95 1014.2
20190915093126 52 55 0.0 0.0 0.00 0.02 0.00 95 1014.3
20190915091627 52 55 0.0 0.0 0.00 0.02 0.00 95 1014.2
20190915090056 51 55 0.0 0.0 0.00 0.02 0.00 96 1014.4
20190915084605 51 55 0.0 0.0 0.00 0.02 0.00 96 1014.5
20190915083138 50 55 0.0 0.0 0.00 0.02 0.00 95 1014.5
20190915081553 51 55 0.0 0.0 0.00 0.02 0.00 94 1014.5
20190915080056 51 55 0.0 0.0 0.00 0.02 0.00 93 1014.6
20190915074615 52 55 0.0 0.0 0.00 0.02 0.00 92 1014.7
20190915073029 52 55 0.0 0.0 0.00 0.02 0.00 92 1014.9
20190915071535 53 84 0.0 0.0 0.00 0.02 0.00 91 1014.9
20190915070117 54 84 0.0 0.0 0.00 0.02 0.00 90 1015.0
20190915064526 54 40 0.0 2.0 0.00 0.02 0.00 90 1015.2
20190915063022 54 44 0.0 1.0 0.00 0.02 0.00 90 1015.4
20190915061515 54 74 0.0 1.0 0.00 0.02 0.00 90 1015.3
20190915060058 54 81 0.0 1.0 0.00 0.02 0.00 90 1015.3
20190915054542 54 26 0.0 1.0 0.00 0.02 0.00 91 1015.3
20190915053023 54 303 1.0 4.0 0.00 0.02 0.00 90 1015.3
20190915051510 54 82 0.0 2.0 0.00 0.02 0.00 90 1015.4
20190915050008 54 169 0.0 3.0 0.00 0.02 0.00 90 1015.5
20190915044534 53 126 0.0 3.0 0.00 0.02 0.02 89 1015.7
20190915043013 53 182 0.0 3.0 0.00 0.02 0.02 89 1015.8
20190915041525 53 134 1.0 4.0 0.00 0.02 0.02 88 1015.8
20190915040006 53 105 1.0 4.0 0.00 0.02 0.02 88 1015.8
20190915034511 53 110 1.0 4.0 0.00 0.02 0.02 88 1015.9
20190915033029 53 150 2.0 6.0 0.00 0.02 0.02 89 1016.0
20190915031505 53 188 1.0 4.0 0.00 0.02 0.02 90 1016.0
20190915030002 53 226 0.0 5.0 0.00 0.02 0.02 92 1015.8
20190915024507 52 248 0.0 2.0 0.00 0.02 0.02 95 1015.5
20190915023015 52 125 0.0 0.0 0.00 0.02 0.02 96 1015.4
20190915021502 52 125 0.0 0.0 0.00 0.02 0.02 95 1015.3
20190915020208 52 125 0.0 0.0 0.00 0.02 0.02 95 1015.3
20190915014712 52 125 0.0 0.0 0.00 0.03 0.02 94 1015.3
20190915013220 53 125 0.0 0.0 0.00 0.03 0.02 93 1015.1
20190915011746 54 125 0.0 0.0 0.00 0.03 0.02 93 1015.3
20190915010205 55 125 0.0 0.0 0.00 0.03 0.02 91 1015.2
20190915004735 56 125 0.0 0.0 0.00 0.03 0.02 89 1015.1
20190915003232 57 125 0.0 0.0 0.00 0.03 0.02 87 1015.1
20190915001635 59 121 0.0 2.0 0.00 0.03 0.02 84 1015.3
20190915000237 60 337 0.0 4.0 0.00 0.03 0.02 82 1015.1
20190914234619 61 103 1.0 4.0 0.00 0.03 0.02 82 1014.8
20190914233133 62 86 1.0 4.0 0.00 0.03 0.02 81 1014.8
20190914231636 61 123 0.0 5.0 0.01 0.03 0.02 82 1014.7
20190914230158 61 119 1.0 5.0 0.01 0.03 0.02 83 1014.8
20190914224643 60 136 0.0 2.0 0.01 0.03 0.02 87 1014.9
20190914223134 60 129 0.0 2.0 0.01 0.03 0.02 86 1015.4
20190914221626 61 206 0.0 1.0 0.00 0.02 0.01 82 1016.2
20190914220146 62 205 0.0 2.0 0.00 0.02 0.01 76 1016.3
20190914214640 63 129 0.0 1.0 0.00 0.03 0.01 72 1016.6
20190914213231 63 223 0.0 0.0 0.00 0.03 0.01 72 1016.9
20190914211722 64 223 0.0 0.0 0.00 0.03 0.01 72 1016.7
20190914210158 65 211 0.0 0.0 0.00 0.03 0.01 66 1016.6
20190914204650 65 252 0.0 3.0 0.00 0.03 0.01 61 1016.7
20190914203131 66 207 3.0 8.0 0.00 0.03 0.01 60 1016.5
20190914201634 66 193 1.0 4.0 0.00 0.03 0.01 60 1016.3
20190914200138 66 206 1.0 7.0 0.00 0.03 0.01 59 1016.5
20190914194639 66 198 1.0 5.0 0.00 0.03 0.01 57 1016.8
20190914193118 65 149 0.0 7.0 0.00 0.03 0.01 58 1016.7
20190914191610 65 152 1.0 5.0 0.00 0.03 0.01 56 1016.9
20190914190158 65 257 1.0 6.0 0.00 0.03 0.01 56 1017.2
20190914184622 65 200 3.0 9.0 0.00 0.03 0.01 58 1017.3
20190914183117 65 145 1.0 6.0 0.00 0.03 0.01 57 1017.7
20190914181649 65 140 0.0 6.0 0.00 0.03 0.01 57 1017.7
20190914180109 63 245 1.0 6.0 0.00 0.03 0.01 57 1017.9
20190914174655 63 277 0.0 5.0 0.00 0.04 0.01 61 1018.0
20190914173056 63 271 1.0 3.0 0.00 0.04 0.01 64 1017.9
20190914171551 62 119 0.0 3.0 0.00 0.04 0.01 64 1017.9
20190914170054 61 186 1.0 4.0 0.00 0.04 0.01 66 1018.1
20190914164532 60 208 2.0 5.0 0.00 0.07 0.01 68 1018.3
20190914163043 58 167 3.0 6.0 0.00 0.07 0.01 77 1018.3
20190914161519 57 184 0.0 3.0 0.00 0.07 0.01 82 1018.2
20190914160053 56 187 0.0 6.0 0.00 0.07 0.01 85 1018.5
20190914154521 54 271 0.0 2.0 0.00 0.16 0.01 88 1018.5
20190914153010 51 192 0.0 3.0 0.00 0.16 0.01 95 1018.6
20190914151501 48 212 0.0 2.0 0.00 0.16 0.01 98 1018.7
20190914150150 47 158 0.0 3.0 0.00 0.16 0.01 98 1018.7
20190914144646 46 172 0.0 2.0 0.00 0.23 0.01 98 1018.7
20190914143209 45 263 0.0 0.0 0.00 0.23 0.01 98 1018.6
20190914141635 44 134 0.0 2.0 0.00 0.23 0.01 98 1018.4
20190914140144 43 121 0.0 3.0 0.00 0.23 0.01 98 1018.4
20190914134611 43 201 0.0 2.0 0.00 0.24 0.01 99 1018.2
20190914133119 42 214 0.0 0.0 0.00 0.24 0.01 99 1018.1
20190914131634 41 214 0.0 0.0 0.00 0.24 0.01 99 1018.0
20190914130123 40 214 0.0 0.0 0.00 0.24 0.01 99 1018.1
20190914124640 39 207 0.0 0.0 0.01 0.25 0.01 98 1018.0
20190914123052 39 207 0.0 0.0 0.01 0.25 0.01 98 1017.8
20190914121619 38 208 0.0 0.0 0.01 0.25 0.01 98 1017.4